Time;durP1;ratioP1;P1;durP2;ratioP2;P2;SDS_P1;SDS_P2;PMS_P1;PMS_P2;Temp;Humidity;BMP_temperature;BMP_pressure;BME280_temperature;BME280_humidity;BME280_pressure;Samples;Min_cycle;Max_cycle;Signal;HPM_P1;HPM_P2
2021/03/19 00:01:33;;;;;;;5.22;3.50;;;;;;;3.16;76.22;99860.52;1704982;84;21051;-61
2021/03/19 00:04:01;;;;;;;5.62;3.65;;;;;;;3.17;76.09;99855.95;1711567;83;21117;-62
2021/03/19 00:06:29;;;;;;;7.05;3.45;;;;;;;3.11;76.14;99860.17;1689918;85;21129;-62
2021/03/19 00:08:57;;;;;;;5.95;3.52;;;;;;;3.11;76.27;99860.17;1712548;83;21070;-62
2021/03/19 00:11:24;;;;;;;6.50;3.58;;;;;;;3.11;76.37;99849.84;1689872;85;21390;-61
2021/03/19 00:13:51;;;;;;;4.62;3.22;;;;;;;3.15;76.51;99852.56;1712519;83;21768;-62
2021/03/19 00:16:19;;;;;;;5.83;3.60;;;;;;;3.22;76.48;99853.61;1689858;85;21051;-63
2021/03/19 00:18:48;;;;;;;5.15;3.58;;;;;;;3.27;76.42;99847.23;1712507;83;21026;-62
2021/03/19 00:21:16;;;;;;;5.85;3.92;;;;;;;3.28;76.13;99844.02;1689887;85;21098;-63
2021/03/19 00:23:43;;;;;;;4.95;3.33;;;;;;;3.29;76.24;99843.84;1712526;83;21110;-63
2021/03/19 00:26:11;;;;;;;6.60;3.90;;;;;;;3.33;76.12;99841.16;1712592;83;21081;-63
2021/03/19 00:28:38;;;;;;;5.30;3.55;;;;;;;3.37;76.06;99843.88;1712574;83;21081;-62
2021/03/19 00:31:06;;;;;;;5.92;3.72;;;;;;;3.38;75.86;99839.30;1689877;85;21106;-61
2021/03/19 00:33:33;;;;;;;6.33;3.52;;;;;;;3.38;75.75;99842.86;1712598;83;21387;-62
2021/03/19 00:36:01;;;;;;;5.42;3.67;;;;;;;3.36;75.57;99839.97;1712568;83;21313;-63
2021/03/19 00:38:28;;;;;;;6.92;3.60;;;;;;;3.28;75.44;99845.37;1712550;83;21333;-61
2021/03/19 00:40:56;;;;;;;5.40;3.65;;;;;;;3.24;75.54;99834.49;1712590;83;21781;-62
2021/03/19 00:43:24;;;;;;;6.00;3.98;;;;;;;3.24;75.58;99840.75;1712499;83;21053;-63
2021/03/19 00:45:51;;;;;;;6.80;3.80;;;;;;;3.18;75.62;99841.41;1712660;83;21257;-62
2021/03/19 00:48:19;;;;;;;6.10;3.87;;;;;;;3.18;75.72;99838.70;1712582;83;21271;-63
2021/03/19 00:50:48;;;;;;;5.95;3.50;;;;;;;3.16;75.86;99838.02;1689540;85;21826;-62
2021/03/19 00:53:16;;;;;;;6.17;3.72;;;;;;;3.16;75.99;99833.96;1712609;83;21815;-62
2021/03/19 00:55:44;;;;;;;4.90;3.25;;;;;;;3.19;75.96;99840.40;1690268;85;21103;-62
2021/03/19 00:58:12;;;;;;;6.12;3.50;;;;;;;3.21;76.03;99834.82;1712672;83;21205;-62
2021/03/19 01:00:39;;;;;;;5.50;3.50;;;;;;;3.24;76.11;99835.34;1712707;83;21110;-62
2021/03/19 01:03:07;;;;;;;5.47;3.70;;;;;;;3.28;75.99;99834.03;1687962;85;21404;-62
2021/03/19 01:05:38;;;;;;;6.87;3.45;;;;;;;3.28;75.92;99833.19;1704968;84;21091;-63
2021/03/19 01:08:07;;;;;;;5.72;3.30;;;;;;;3.31;75.98;99835.05;1705149;84;21774;-62
2021/03/19 01:10:45;;;;;;;5.37;3.33;;;;;;;3.32;75.70;99831.84;1705053;84;21297;-62
2021/03/19 01:13:13;;;;;;;6.42;3.90;;;;;;;3.30;75.60;99841.98;1704956;84;21079;-62
2021/03/19 01:15:41;;;;;;;6.33;3.50;;;;;;;3.28;75.61;99842.16;1705216;84;21074;-62
2021/03/19 01:18:13;;;;;;;5.87;3.50;;;;;;;3.29;75.70;99839.79;1704993;84;21047;-62
2021/03/19 01:20:41;;;;;;;6.17;3.42;;;;;;;3.28;75.58;99838.09;1705058;84;21329;-62
2021/03/19 01:23:12;;;;;;;6.10;3.72;;;;;;;3.26;75.52;99836.05;1704974;83;21070;-62
2021/03/19 01:25:39;;;;;;;6.67;3.72;;;;;;;3.24;75.45;99833.98;1690689;84;21074;-62
2021/03/19 01:28:07;;;;;;;5.90;3.70;;;;;;;3.22;75.44;99836.02;1682477;85;21108;-62
2021/03/19 01:30:37;;;;;;;6.00;3.70;;;;;;;3.19;75.51;99846.66;1705076;84;21058;-62
2021/03/19 01:33:05;;;;;;;6.37;3.47;;;;;;;3.18;75.45;99842.77;1705094;84;21071;-62
2021/03/19 01:35:35;;;;;;;5.97;3.75;;;;;;;3.16;75.39;99838.87;1705038;84;21054;-63
2021/03/19 01:38:04;;;;;;;6.17;3.70;;;;;;;3.14;75.34;99838.69;1705070;84;21074;-62
2021/03/19 01:40:40;;;;;;;6.80;4.00;;;;;;;3.10;75.31;99840.87;1705062;84;21062;-63
2021/03/19 01:43:40;;;;;;;5.92;3.55;;;;;;;3.09;75.33;99842.39;1705012;83;21846;-63
2021/03/19 01:47:04;;;;;;;5.53;3.72;;;;;;;3.06;75.36;99850.84;1684736;84;21063;-62
2021/03/19 01:50:31;;;;;;;6.65;4.08;;;;;;;3.04;75.48;99853.71;1705070;83;21221;-62
2021/03/19 01:53:54;;;;;;;7.10;3.90;;;;;;;2.95;75.48;99853.84;1684898;85;21094;-61
2021/03/19 01:57:10;;;;;;;5.03;3.02;;;;;;;2.88;75.70;99856.34;1705079;84;21293;-62
2021/03/19 02:00:34;;;;;;;6.70;4.00;;;;;;;2.89;75.89;99861.25;1716408;83;21276;-62
2021/03/19 02:03:58;;;;;;;5.03;3.52;;;;;;;2.94;76.01;99849.44;1705026;83;21356;-62
2021/03/19 02:07:22;;;;;;;6.55;3.70;;;;;;;3.00;76.02;99855.05;1704962;84;21781;-62
2021/03/19 02:10:46;;;;;;;5.55;3.40;;;;;;;2.99;75.94;99857.92;1684820;85;21342;-62
2021/03/19 02:14:10;;;;;;;5.85;4.12;;;;;;;2.98;75.84;99857.58;1704991;84;21078;-61
2021/03/19 02:17:36;;;;;;;6.03;3.92;;;;;;;3.01;75.91;99859.95;1705014;84;21079;-62
2021/03/19 02:21:01;;;;;;;9.00;3.50;;;;;;;3.07;75.81;99857.95;1705117;84;21047;-62
2021/03/19 02:24:25;;;;;;;5.60;3.77;;;;;;;3.11;75.70;99858.81;1704987;84;21035;-62
2021/03/19 02:27:48;;;;;;;5.08;2.95;;;;;;;3.10;75.60;99858.98;1704999;84;21224;-62
2021/03/19 02:31:12;;;;;;;6.50;3.15;;;;;;;3.10;75.41;99860.33;1684854;85;21339;-62
2021/03/19 02:33:59;;;;;;;5.53;3.37;;;;;;;3.05;75.22;99868.94;1695132;84;21247;-62
2021/03/19 02:36:28;;;;;;;5.28;3.22;;;;;;;3.02;75.35;99865.71;1682377;85;21302;-62
2021/03/19 02:38:55;;;;;;;5.40;3.37;;;;;;;3.04;75.38;99868.59;1683124;84;21708;-62
2021/03/19 02:41:23;;;;;;;5.10;3.40;;;;;;;3.02;75.16;99873.83;1683094;85;21284;-63
2021/03/19 02:43:50;;;;;;;4.75;3.15;;;;;;;3.02;75.30;99881.95;1683148;85;21818;-62
2021/03/19 02:46:18;;;;;;;5.20;3.35;;;;;;;3.05;75.38;99873.50;1682985;85;21282;-62
2021/03/19 02:48:45;;;;;;;5.28;3.52;;;;;;;3.02;75.11;99884.66;1683001;85;21086;-62
2021/03/19 02:51:13;;;;;;;6.03;3.60;;;;;;;2.93;75.20;99885.12;1682991;85;21050;-62
2021/03/19 02:53:41;;;;;;;5.65;3.42;;;;;;;2.92;75.33;99882.58;1632844;85;21097;-63
2021/03/19 02:56:09;;;;;;;5.45;3.33;;;;;;;2.93;75.49;99885.12;1683062;84;21047;-64
2021/03/19 02:58:37;;;;;;;4.72;3.50;;;;;;;2.96;75.45;99890.71;1683092;85;21415;-62
2021/03/19 03:01:05;;;;;;;4.25;3.30;;;;;;;2.96;75.36;99891.56;1683132;85;21177;-63
2021/03/19 03:03:33;;;;;;;5.37;3.47;;;;;;;2.96;75.30;99892.91;1684296;85;21106;-62
2021/03/19 03:06:01;;;;;;;6.08;3.62;;;;;;;2.95;75.36;99893.08;1688047;85;21483;-60
2021/03/19 03:08:29;;;;;;;7.25;3.70;;;;;;;2.94;75.33;99890.88;1688052;85;21208;-62
2021/03/19 03:10:59;;;;;;;6.20;3.75;;;;;;;2.96;75.37;99899.67;1688015;85;21042;-62
2021/03/19 03:13:26;;;;;;;4.42;3.10;;;;;;;2.96;75.28;99904.24;1687959;85;21245;-62
2021/03/19 03:15:54;;;;;;;5.75;4.00;;;;;;;2.99;75.27;99906.62;1688019;84;21114;-62
2021/03/19 03:18:24;;;;;;;5.35;3.70;;;;;;;2.94;75.17;99899.49;1688099;85;21050;-61
2021/03/19 03:20:57;;;;;;;5.50;3.50;;;;;;;2.91;75.27;99902.52;1687992;85;21316;-61
2021/03/19 03:23:25;;;;;;;8.03;4.08;;;;;;;2.92;75.38;99903.72;1687966;85;21180;-61
2021/03/19 03:25:55;;;;;;;4.75;3.15;;;;;;;2.95;75.34;99907.45;1687962;85;21082;-63
2021/03/19 03:28:24;;;;;;;6.50;4.15;;;;;;;2.94;75.20;99909.81;1687995;85;21155;-62
2021/03/19 03:30:57;;;;;;;5.75;3.70;;;;;;;2.91;75.21;99906.58;1687984;84;21070;-61
2021/03/19 03:33:25;;;;;;;5.58;3.30;;;;;;;2.84;75.10;99903.16;1687945;85;21859;-62
2021/03/19 03:35:52;;;;;;;6.50;3.77;;;;;;;2.78;75.16;99903.81;1687976;85;21070;-62
2021/03/19 03:38:23;;;;;;;7.45;4.20;;;;;;;2.69;75.27;99904.77;1687938;85;21057;-62
2021/03/19 03:40:59;;;;;;;5.92;3.70;;;;;;;2.67;75.48;99909.48;1687988;85;21607;-62
2021/03/19 03:43:26;;;;;;;6.65;3.72;;;;;;;2.69;75.65;99912.88;1687959;85;21082;-63
2021/03/19 03:45:54;;;;;;;5.62;3.85;;;;;;;2.68;75.64;99908.98;1688012;85;21055;-63
2021/03/19 03:48:24;;;;;;;6.00;4.25;;;;;;;2.69;75.82;99905.27;1688034;85;21069;-62
2021/03/19 03:50:52;;;;;;;8.83;4.17;;;;;;;2.70;75.87;99915.93;1687901;85;21310;-63
2021/03/19 03:53:21;;;;;;;6.83;3.85;;;;;;;2.72;75.93;99908.50;1687875;85;21216;-64
2021/03/19 03:55:49;;;;;;;6.50;3.92;;;;;;;2.77;75.96;99906.16;1687815;85;21101;-61
2021/03/19 03:58:16;;;;;;;6.62;3.90;;;;;;;2.82;75.72;99907.04;1687965;85;21351;-62
2021/03/19 04:00:44;;;;;;;6.95;4.20;;;;;;;2.78;75.48;99901.61;1687889;85;21309;-62
2021/03/19 04:03:12;;;;;;;6.47;3.72;;;;;;;2.75;75.62;99906.83;1687970;85;21327;-65
2021/03/19 04:05:46;;;;;;;6.33;4.28;;;;;;;2.71;75.39;99908.16;1687889;85;21095;-62
2021/03/19 04:08:17;;;;;;;6.15;3.85;;;;;;;2.66;75.61;99908.30;1687799;85;21093;-63
2021/03/19 04:10:45;;;;;;;7.10;3.87;;;;;;;2.69;75.73;99906.62;1687910;85;21058;-62
2021/03/19 04:13:12;;;;;;;8.30;4.17;;;;;;;2.68;75.51;99908.98;1687919;85;21069;-64
2021/03/19 04:15:40;;;;;;;6.08;3.77;;;;;;;2.67;75.66;99911.34;1688052;85;21062;-62
2021/03/19 04:18:10;;;;;;;7.22;4.22;;;;;;;2.73;75.67;99914.77;1687861;85;21079;-62
2021/03/19 04:20:38;;;;;;;5.65;4.10;;;;;;;2.74;75.58;99909.19;1687921;85;21325;-62
2021/03/19 04:23:08;;;;;;;7.08;4.30;;;;;;;2.76;75.49;99914.44;1684319;85;21115;-62
2021/03/19 04:25:35;;;;;;;6.10;4.17;;;;;;;2.77;75.43;99915.64;1688109;85;21165;-62
2021/03/19 04:28:07;;;;;;;5.97;3.62;;;;;;;2.75;75.44;99910.04;1688157;85;21336;-61
2021/03/19 04:30:40;;;;;;;6.83;4.05;;;;;;;2.77;75.34;99923.75;1687979;85;21074;-63
2021/03/19 04:33:10;;;;;;;6.10;4.10;;;;;;;2.72;75.08;99921.18;1687970;85;21117;-61
2021/03/19 04:35:38;;;;;;;6.50;3.60;;;;;;;2.68;75.22;99922.00;1688099;85;21066;-62
2021/03/19 04:38:12;;;;;;;5.90;3.98;;;;;;;2.69;75.32;99916.94;1688000;85;21311;-62
2021/03/19 04:40:41;;;;;;;6.00;3.87;;;;;;;2.71;75.42;99914.92;1688175;85;21114;-62
2021/03/19 04:43:09;;;;;;;6.10;3.90;;;;;;;2.74;75.42;99918.66;1687960;85;21035;-62
2021/03/19 04:45:38;;;;;;;4.83;3.30;;;;;;;2.74;75.26;99917.31;1687867;85;21062;-62
2021/03/19 04:48:07;;;;;;;6.00;3.50;;;;;;;2.75;75.22;99909.53;1687944;85;21070;-62
2021/03/19 04:50:35;;;;;;;5.97;3.92;;;;;;;2.76;75.05;99915.80;1688095;84;21402;-64
2021/03/19 04:53:03;;;;;;;6.03;3.90;;;;;;;2.75;74.99;99916.80;1688081;85;21074;-62
2021/03/19 04:55:31;;;;;;;5.03;3.60;;;;;;;2.76;75.08;99915.30;1688007;84;21070;-62
2021/03/19 04:57:58;;;;;;;5.30;3.40;;;;;;;2.81;75.09;99924.28;1687916;85;21078;-62
2021/03/19 05:00:25;;;;;;;6.28;3.50;;;;;;;2.83;74.94;99916.34;1687893;85;21118;-62
2021/03/19 05:02:53;;;;;;;8.18;4.33;;;;;;;2.78;74.83;99924.59;1688010;85;21358;-62
2021/03/19 05:05:25;;;;;;;5.90;4.05;;;;;;;2.78;74.98;99917.33;1686386;85;21070;-62
2021/03/19 05:07:53;;;;;;;6.47;3.90;;;;;;;2.78;75.01;99918.69;1685696;85;21101;-63
2021/03/19 05:10:23;;;;;;;6.15;4.00;;;;;;;2.77;74.86;99930.52;1685710;84;21094;-62
2021/03/19 05:12:51;;;;;;;6.78;3.92;;;;;;;2.70;74.85;99936.22;1685548;85;21200;-62
2021/03/19 05:15:19;;;;;;;5.67;3.67;;;;;;;2.67;74.81;99931.63;1685722;85;21438;-62
2021/03/19 05:17:46;;;;;;;6.60;3.72;;;;;;;2.60;74.82;99927.83;1685847;85;21307;-62
2021/03/19 05:20:16;;;;;;;6.62;3.87;;;;;;;2.61;75.09;99931.76;1685857;85;21140;-63
2021/03/19 05:22:44;;;;;;;5.90;3.92;;;;;;;2.65;75.10;99934.48;1685819;84;21772;-62
2021/03/19 05:25:16;;;;;;;6.87;4.22;;;;;;;2.68;75.34;99934.17;1685613;85;21204;-60
2021/03/19 05:27:43;;;;;;;5.37;3.52;;;;;;;2.75;75.34;99935.73;1685579;84;21217;-62
2021/03/19 05:30:12;;;;;;;6.65;3.85;;;;;;;2.78;75.08;99930.01;1685436;85;21181;-62
2021/03/19 05:32:40;;;;;;;6.60;4.28;;;;;;;2.75;74.99;99932.53;1685777;85;21229;-62
2021/03/19 05:35:10;;;;;;;6.50;4.08;;;;;;;2.76;75.12;99936.08;1685844;84;21133;-62
2021/03/19 05:37:38;;;;;;;6.97;3.77;;;;;;;2.77;75.07;99941.84;1685722;84;21431;-62
2021/03/19 05:40:08;;;;;;;6.62;4.20;;;;;;;2.80;75.17;99942.88;1685751;85;21078;-62
2021/03/19 05:42:36;;;;;;;6.40;4.00;;;;;;;2.82;75.09;99946.27;1685881;85;21090;-62
2021/03/19 05:45:19;;;;;;;6.50;4.00;;;;;;;2.80;74.86;99946.93;1685806;85;21193;-61
2021/03/19 05:47:46;;;;;;;9.88;5.53;;;;;;;2.75;74.96;99950.11;1674070;84;21130;-62
2021/03/19 05:50:30;;;;;;;7.10;4.15;;;;;;;2.73;75.06;99950.77;1678341;85;21429;-61
2021/03/19 05:53:15;;;;;;;7.22;4.05;;;;;;;2.75;75.13;99955.52;1641387;86;21080;-64
2021/03/19 05:55:42;;;;;;;7.62;4.60;;;;;;;2.79;75.33;99956.91;1614713;89;21095;-62
2021/03/19 05:58:29;;;;;;;5.08;3.55;;;;;;;2.85;75.15;99963.53;1614643;87;21468;-62
2021/03/19 06:00:58;;;;;;;7.75;4.72;;;;;;;2.84;75.05;99959.98;1614703;89;21210;-62
2021/03/19 06:03:26;;;;;;;7.08;4.25;;;;;;;2.76;75.05;99961.78;1614732;87;21092;-62
2021/03/19 06:06:05;;;;;;;6.72;4.30;;;;;;;2.76;75.19;99958.57;1617579;87;21160;-62
2021/03/19 06:08:38;;;;;;;8.18;4.80;;;;;;;2.77;75.14;99963.48;1618749;87;21286;-62
2021/03/19 06:11:23;;;;;;;8.75;4.62;;;;;;;2.78;75.25;99973.30;1618777;88;21245;-61
2021/03/19 06:14:03;;;;;;;7.08;4.55;;;;;;;2.78;75.42;99972.79;1618780;88;21231;-61
2021/03/19 06:16:42;;;;;;;7.12;4.60;;;;;;;2.82;75.37;99970.11;1618926;88;21188;-64
2021/03/19 06:19:39;;;;;;;8.50;4.80;;;;;;;2.83;75.34;99975.02;1618710;87;22062;-62
2021/03/19 06:22:36;;;;;;;9.00;5.08;;;;;;;2.87;75.53;99977.75;1618349;87;21104;-62
2021/03/19 06:25:23;;;;;;;7.90;4.87;;;;;;;2.92;75.35;99977.27;1618612;87;21093;-62
2021/03/19 06:27:56;;;;;;;7.83;4.85;;;;;;;2.94;75.23;99980.17;1618713;88;21768;-63
2021/03/19 06:30:43;;;;;;;12.18;6.67;;;;;;;2.98;75.29;99984.75;1618420;87;21125;-63
2021/03/19 06:33:24;;;;;;;11.22;5.92;;;;;;;3.01;75.00;100000.17;1677626;84;21346;-62
2021/03/19 06:36:17;;;;;;;12.10;5.67;;;;;;;2.92;74.82;99989.45;1682842;85;21337;-62
2021/03/19 06:38:52;;;;;;;15.90;7.65;;;;;;;2.86;74.63;99993.14;1682980;85;21401;-62
2021/03/19 06:41:30;;;;;;;15.72;7.47;;;;;;;2.83;74.79;99989.39;1679327;85;21102;-62
2021/03/19 06:44:22;;;;;;;11.10;6.92;;;;;;;2.86;74.95;99999.91;1683343;84;21238;-63
2021/03/19 06:47:00;;;;;;;9.20;5.80;;;;;;;2.91;75.12;99995.87;1682812;85;21261;-62
2021/03/19 06:49:28;;;;;;;9.53;5.78;;;;;;;2.97;75.15;99996.08;1683076;85;21803;-64
2021/03/19 06:52:23;;;;;;;14.15;6.50;;;;;;;3.00;74.76;100008.45;1682940;85;21348;-62
2021/03/19 06:55:01;;;;;;;10.10;6.42;;;;;;;2.99;74.51;100002.69;1682956;85;21074;-63
2021/03/19 06:57:45;;;;;;;11.78;6.20;;;;;;;2.90;74.30;100005.84;1682823;85;21090;-63
2021/03/19 07:00:14;;;;;;;11.25;5.58;;;;;;;2.84;74.48;100000.56;1682938;84;21387;-63
2021/03/19 07:03:28;;;;;;;12.93;6.92;;;;;;;2.84;74.67;100006.48;1655847;85;21613;-63
2021/03/19 07:06:17;;;;;;;12.33;6.78;;;;;;;2.83;74.54;100004.78;1682905;85;21126;-62
2021/03/19 07:09:05;;;;;;;11.50;5.78;;;;;;;2.76;74.65;99993.73;1682415;85;21071;-63
2021/03/19 07:12:00;;;;;;;10.60;6.30;;;;;;;2.80;74.86;99996.98;1682653;85;21297;-62
2021/03/19 07:14:51;;;;;;;10.78;5.85;;;;;;;2.81;74.72;100000.88;1682920;85;21106;-62
2021/03/19 07:17:57;;;;;;;13.08;6.83;;;;;;;2.83;74.88;100010.19;1675055;84;21070;-62
2021/03/19 07:21:22;;;;;;;10.80;6.67;;;;;;;2.86;74.89;100010.72;1682777;84;21452;-63
2021/03/19 07:24:23;;;;;;;9.43;5.53;;;;;;;2.97;74.96;100014.17;1659284;85;21047;-61
2021/03/19 07:27:25;;;;;;;11.35;6.20;;;;;;;3.03;74.72;100011.69;1682898;84;21803;-63
2021/03/19 07:30:31;;;;;;;11.40;6.97;;;;;;;3.04;74.53;100025.56;1680776;85;21672;-61
2021/03/19 07:34:01;;;;;;;11.08;6.90;;;;;;;2.98;74.45;100017.23;1682963;85;21110;-62
2021/03/19 07:37:24;;;;;;;12.40;6.12;;;;;;;3.01;74.61;100022.33;1683068;85;21185;-62
2021/03/19 07:40:29;;;;;;;11.03;6.15;;;;;;;3.05;74.46;100012.38;1683058;85;21114;-62
2021/03/19 07:43:11;;;;;;;9.18;5.25;;;;;;;3.09;74.02;100018.32;1655553;85;21103;-64
2021/03/19 07:45:59;;;;;;;14.55;8.53;;;;;;;3.07;74.01;100015.77;1682874;84;21132;-63
2021/03/19 07:49:05;;;;;;;10.85;6.45;;;;;;;3.04;73.80;100014.73;1682919;85;21301;-62
2021/03/19 07:52:03;;;;;;;11.65;6.65;;;;;;;3.10;74.24;100020.02;1681426;85;21329;-62
2021/03/19 07:55:10;;;;;;;10.38;6.42;;;;;;;3.22;74.29;100017.89;1682855;85;21122;-62
2021/03/19 07:58:17;;;;;;;14.83;8.58;;;;;;;3.34;74.33;100020.70;1682971;84;21106;-63
2021/03/19 08:01:25;;;;;;;11.97;6.53;;;;;;;3.39;74.33;100015.66;1682890;85;21236;-63
2021/03/19 08:04:54;;;;;;;13.93;7.58;;;;;;;3.53;74.20;100020.47;1683009;85;21786;-63
2021/03/19 08:07:37;;;;;;;12.05;6.42;;;;;;;3.56;73.91;100017.94;1666743;85;21841;-64
2021/03/19 08:10:45;;;;;;;13.50;6.33;;;;;;;3.57;73.50;100023.70;1656617;85;21790;-62
2021/03/19 08:13:35;;;;;;;9.55;5.75;;;;;;;3.57;73.47;100020.98;1670191;84;21102;-62
2021/03/19 08:16:25;;;;;;;9.88;6.08;;;;;;;3.58;73.53;100020.83;1646728;85;21065;-64
2021/03/19 08:19:10;;;;;;;10.53;6.60;;;;;;;3.59;73.45;100029.80;1655044;85;21074;-63
2021/03/19 08:21:59;;;;;;;10.20;6.35;;;;;;;3.63;73.42;100024.41;1658596;86;21389;-62
2021/03/19 08:24:56;;;;;;;9.25;5.30;;;;;;;3.66;73.33;100033.05;1657382;86;21094;-62
2021/03/19 08:27:42;;;;;;;10.08;5.90;;;;;;;3.70;72.71;100035.78;1632400;85;21200;-63
2021/03/19 08:30:33;;;;;;;12.53;6.50;;;;;;;3.63;72.34;100029.81;1657101;86;21106;-61
2021/03/19 08:33:25;;;;;;;6.67;4.95;;;;;;;3.62;72.08;100032.19;1657215;85;21229;-63
2021/03/19 08:36:07;;;;;;;9.48;5.37;;;;;;;3.60;71.99;100028.79;1656683;85;21118;-61
2021/03/19 08:38:46;;;;;;;9.60;5.62;;;;;;;3.61;71.99;100036.75;1657153;85;21106;-63
2021/03/19 08:41:27;;;;;;;12.10;6.20;;;;;;;3.61;71.67;100044.03;1657370;86;21252;-62
2021/03/19 08:44:03;;;;;;;12.93;6.28;;;;;;;3.56;71.11;100034.19;1657149;86;21340;-63
2021/03/19 08:46:39;;;;;;;9.05;5.45;;;;;;;3.52;71.36;100043.64;1651818;86;21064;-63
2021/03/19 08:49:14;;;;;;;9.18;5.42;;;;;;;3.56;71.44;100036.90;1647391;86;21106;-62
2021/03/19 08:51:44;;;;;;;10.78;6.00;;;;;;;3.63;71.62;100039.30;1645811;86;21817;-63
2021/03/19 08:54:18;;;;;;;12.10;6.78;;;;;;;3.66;71.77;100034.41;1655077;85;21109;-61
2021/03/19 08:56:57;;;;;;;11.45;6.75;;;;;;;3.74;71.95;100034.95;1663594;85;21201;-64
2021/03/19 08:59:39;;;;;;;9.45;6.08;;;;;;;3.80;72.00;100037.01;1684323;85;21364;-65
2021/03/19 09:02:31;;;;;;;9.60;5.62;;;;;;;3.87;72.14;100038.05;1626798;86;21395;-62
2021/03/19 09:05:04;;;;;;;10.88;6.30;;;;;;;3.99;72.14;100029.14;1643683;87;21085;-63
2021/03/19 09:08:02;;;;;;;13.90;6.95;;;;;;;4.08;72.18;100035.78;1621998;86;21599;-62
2021/03/19 09:10:35;;;;;;;10.85;6.75;;;;;;;4.25;72.19;100042.60;1620870;88;21078;-66
2021/03/19 09:13:08;;;;;;;10.55;6.78;;;;;;;4.41;71.25;100038.56;1619583;88;21075;-63
2021/03/19 09:15:40;;;;;;;11.60;6.72;;;;;;;4.46;71.10;100034.33;1626446;88;21229;-63
2021/03/19 09:18:42;;;;;;;10.85;6.53;;;;;;;4.60;71.16;100045.58;1647692;87;21068;-65
2021/03/19 09:21:31;;;;;;;10.65;5.92;;;;;;;4.65;70.78;100044.56;1641616;86;21206;-63
2021/03/19 09:24:02;;;;;;;;;;;;;;;4.71;70.06;100029.81;1645537;85;21338;-62
2021/03/19 09:26:50;;;;;;;10.90;6.47;;;;;;;4.73;69.63;100037.78;1652693;85;20303;-65
2021/03/19 09:29:23;;;;;;;11.90;6.37;;;;;;;4.74;69.25;100039.48;1665466;86;21077;-65
2021/03/19 09:31:56;;;;;;;10.90;6.33;;;;;;;4.69;68.79;100042.70;1665549;84;21335;-65
2021/03/19 09:34:50;;;;;;;9.53;5.53;;;;;;;4.72;68.97;100038.80;1665699;84;21387;-63
2021/03/19 09:37:42;;;;;;;8.78;5.65;;;;;;;4.80;68.79;100042.02;1665435;84;21077;-63
2021/03/19 09:40:15;;;;;;;14.28;7.05;;;;;;;4.88;68.72;100044.73;1665416;84;21220;-63
2021/03/19 09:42:47;;;;;;;13.15;7.10;;;;;;;4.90;67.93;100039.98;1657385;84;21106;-63
2021/03/19 09:45:26;;;;;;;10.75;5.58;;;;;;;4.96;67.69;100040.66;1621300;87;21095;-61
2021/03/19 09:48:20;;;;;;;8.10;5.87;;;;;;;5.02;67.44;100040.83;1630210;87;21078;-65
2021/03/19 09:50:59;;;;;;;12.98;5.65;;;;;;;5.03;66.67;100045.75;1630125;86;21782;-61
2021/03/19 09:53:35;;;;;;;12.23;5.30;;;;;;;5.00;66.59;100043.38;1634574;86;21327;-62
2021/03/19 09:56:15;;;;;;;;;;;;;;;5.03;67.01;100049.81;1626273;88;21081;-62
2021/03/19 09:58:52;;;;;;;7.05;4.25;;;;;;;5.05;66.54;100047.27;1597338;88;20188;-61
2021/03/19 10:01:43;;;;;;;10.47;4.77;;;;;;;5.02;65.65;100046.77;1606114;87;21248;-60
2021/03/19 10:04:32;;;;;;;6.25;4.03;;;;;;;4.91;65.61;100048.47;1622927;87;21708;-62
2021/03/19 10:07:06;;;;;;;8.85;5.10;;;;;;;4.90;65.71;100047.63;1633746;86;21167;-65
2021/03/19 10:09:45;;;;;;;10.75;5.90;;;;;;;4.84;65.86;100056.95;1628407;86;21110;-65
2021/03/19 10:12:19;;;;;;;10.00;4.90;;;;;;;4.74;65.49;100051.18;1613093;88;21878;-64
2021/03/19 10:14:52;;;;;;;8.38;4.50;;;;;;;4.66;65.82;100055.25;1625132;88;21051;-60
2021/03/19 10:17:33;;;;;;;6.50;4.60;;;;;;;4.64;65.81;100057.28;1603338;88;21372;-64
2021/03/19 10:20:22;;;;;;;6.30;4.05;;;;;;;4.62;65.98;100060.67;1601086;88;21111;-64
2021/03/19 10:22:54;;;;;;;8.58;4.37;;;;;;;4.70;66.18;100055.25;1625683;88;21830;-64
2021/03/19 10:25:31;;;;;;;6.28;4.20;;;;;;;4.81;65.96;100066.28;1672820;85;21857;-63
2021/03/19 10:28:16;;;;;;;13.30;4.90;;;;;;;4.91;66.03;100062.05;1630526;85;21250;-64
2021/03/19 10:31:06;;;;;;;7.90;4.60;;;;;;;4.99;65.48;100062.05;1649241;85;21334;-64
2021/03/19 10:33:59;;;;;;;7.72;4.50;;;;;;;5.06;65.15;100064.41;1606831;88;21228;-63
2021/03/19 10:36:45;;;;;;;5.53;3.65;;;;;;;5.17;65.12;100059.98;1603911;87;21354;-62
2021/03/19 10:39:30;;;;;;;7.97;4.80;;;;;;;5.31;64.72;100061.19;1625522;87;21174;-63
2021/03/19 10:42:11;;;;;;;9.55;4.72;;;;;;;5.36;64.30;100061.02;1632024;86;21847;-61
2021/03/19 10:44:47;;;;;;;7.20;4.60;;;;;;;5.45;63.82;100053.69;1608600;88;21134;-61
2021/03/19 10:47:27;;;;;;;15.23;5.50;;;;;;;5.55;64.10;100058.94;1616595;87;21351;-60
2021/03/19 10:49:59;;;;;;;8.18;4.65;;;;;;;5.65;63.76;100053.64;1653499;85;21067;-63
2021/03/19 10:52:38;;;;;;;16.82;4.70;;;;;;;5.67;63.65;100048.88;1631723;88;21334;-61
2021/03/19 10:55:13;;;;;;;5.50;3.87;;;;;;;5.70;63.58;100051.75;1591867;88;21082;-64
2021/03/19 10:57:59;;;;;;;11.30;3.75;;;;;;;5.70;62.62;100054.47;1631302;87;21365;-61
2021/03/19 11:00:41;;;;;;;8.38;3.60;;;;;;;5.69;63.01;100056.85;1626313;86;21320;-60
2021/03/19 11:03:33;;;;;;;4.83;3.30;;;;;;;5.76;62.99;100055.64;1647181;85;21071;-61
2021/03/19 11:06:07;;;;;;;11.33;4.10;;;;;;;5.81;62.65;100050.53;1680302;85;21425;-60
2021/03/19 11:08:37;;;;;;;6.55;3.98;;;;;;;5.84;62.38;100050.17;1708852;83;21071;-60
2021/03/19 11:11:04;;;;;;;9.25;5.22;;;;;;;5.87;62.34;100050.70;1708831;84;21086;-61
2021/03/19 11:13:35;;;;;;;12.25;6.33;;;;;;;5.86;62.10;100054.95;1708875;83;21077;-61
2021/03/19 11:16:08;;;;;;;13.13;5.85;;;;;;;5.84;62.90;100052.89;1708950;84;21280;-61
2021/03/19 11:18:39;;;;;;;9.15;5.35;;;;;;;5.93;63.19;100054.63;1651863;85;21053;-61
2021/03/19 11:21:12;;;;;;;10.20;5.30;;;;;;;5.99;63.37;100050.69;1633115;85;21325;-62
2021/03/19 11:23:45;;;;;;;7.40;4.70;;;;;;;6.05;63.22;100051.84;1651273;85;21369;-61
2021/03/19 11:26:28;;;;;;;7.33;4.37;;;;;;;6.07;63.17;100059.83;1659179;86;21826;-62
2021/03/19 11:29:22;;;;;;;6.42;4.40;;;;;;;6.09;62.91;100057.78;1654050;85;21742;-62
2021/03/19 11:32:14;;;;;;;8.25;4.60;;;;;;;6.11;63.02;100050.29;1658264;84;21156;-60
2021/03/19 11:34:48;;;;;;;49.40;26.30;;;;;;;6.17;62.92;100059.09;1679749;85;21146;-61
2021/03/19 11:37:25;;;;;;;16.97;7.58;;;;;;;6.24;62.75;100051.41;1680153;85;21114;-60
2021/03/19 11:40:12;;;;;;;11.83;6.05;;;;;;;6.35;62.19;100052.88;1679785;85;21255;-62
2021/03/19 11:42:54;;;;;;;8.10;4.55;;;;;;;6.37;61.97;100048.11;1679949;85;21050;-60
2021/03/19 11:45:24;;;;;;;5.40;4.25;;;;;;;6.41;61.87;100048.59;1679991;85;21246;-60
2021/03/19 11:48:07;;;;;;;5.80;3.95;;;;;;;6.50;61.43;100047.52;1680842;85;21117;-60
2021/03/19 11:50:39;;;;;;;7.00;4.20;;;;;;;6.60;60.81;100049.00;1670997;85;21825;-62
2021/03/19 11:53:11;;;;;;;6.05;4.05;;;;;;;6.74;60.73;100043.80;1661681;86;21424;-63
2021/03/19 11:55:43;;;;;;;8.60;4.47;;;;;;;6.84;60.01;100044.41;1652120;86;21093;-61
2021/03/19 11:58:13;;;;;;;6.00;4.08;;;;;;;6.93;59.80;100042.80;1660380;86;21679;-61
2021/03/19 12:00:41;;;;;;;8.43;4.78;;;;;;;7.02;58.99;100042.72;1675662;85;21301;-62
2021/03/19 12:03:26;;;;;;;9.98;4.40;;;;;;;6.95;58.11;100043.45;1678609;85;21078;-61
2021/03/19 12:05:53;;;;;;;6.55;3.60;;;;;;;6.95;58.32;100042.09;1641921;85;21071;-61
2021/03/19 12:08:21;;;;;;;7.95;3.70;;;;;;;7.02;58.07;100038.12;1652250;85;21356;-60
2021/03/19 12:10:51;;;;;;;9.00;4.47;;;;;;;7.12;56.93;100045.52;1643182;84;21175;-59
2021/03/19 12:13:18;;;;;;;6.08;3.75;;;;;;;7.23;55.86;100046.47;1664844;85;21107;-64
2021/03/19 12:15:46;;;;;;;7.30;4.58;;;;;;;7.27;55.16;100049.67;1648996;85;21086;-62
2021/03/19 12:18:15;;;;;;;7.95;4.42;;;;;;;7.21;55.19;100047.17;1659721;84;21109;-67
2021/03/19 12:20:43;;;;;;;6.15;4.42;;;;;;;7.23;55.51;100041.53;1655882;85;21098;-61
2021/03/19 12:23:11;;;;;;;6.20;4.40;;;;;;;7.25;55.15;100042.20;1651956;85;21093;-66
2021/03/19 12:25:38;;;;;;;7.08;4.55;;;;;;;7.26;54.70;100049.34;1667462;85;21110;-64
2021/03/19 12:28:07;;;;;;;12.37;5.37;;;;;;;7.23;54.62;100045.11;1654064;85;21372;-62
2021/03/19 12:30:34;;;;;;;8.28;4.75;;;;;;;7.27;54.46;100038.25;1655676;84;21797;-63
2021/03/19 12:36:28;;;;;;;9.38;5.45;;;;;;;7.38;53.44;100042.41;1670544;84;21784;-64